• Join FlightAware (Why Join?)
  • Login
  • US Flag 
04:07AM EDT


 

Airport Tracker/Info


-or-


 

Live Flight TrackerFlight Track Log ✈ AUB2130 ✈ 30-Apr-2012 ✈ EDDM / MUC - EDDC / DRS

Flight Track Log - Related Links

Times and Time Zones

All times are in EDT time to prevent confusion due to time zone crossing. See the AUB2130 flight status page for this flight to view local times or setup timezone preferences in your user account.

Time Position Orientation Groundspeed Altitude Reporting Facility
EDT Latitude Longitude Course Direction KTS MPH feet Rate Location/Type
01:22PM 48.3738 11.7995 24° Northeast  Level Estimated
01:23PM 48.4538 11.8532 24° Northeast  Level Estimated
01:24PM 48.5337 11.9070 24° Northeast  Level Estimated
01:25PM 48.6137 11.9611 24° Northeast  Level Estimated
01:26PM 48.6936 12.0153 24° Northeast  Level Estimated
01:27PM 48.7735 12.0696 24° Northeast  Level Estimated
01:28PM 48.8534 12.1242 24° Northeast  Level Estimated
01:29PM 48.9332 12.1789 24° Northeast  Level Estimated
01:30PM 49.0130 12.2338 24° Northeast  Level Estimated
01:31PM 49.0928 12.2889 24° Northeast  Level Estimated
01:32PM 49.1726 12.3441 24° Northeast  Level Estimated
01:33PM 49.2523 12.3996 24° Northeast  Level Estimated
01:34PM 49.3320 12.4552 24° Northeast  Level Estimated
01:35PM 49.4117 12.5110 25° Northeast  Level Estimated
01:36PM 49.4914 12.5669 25° Northeast  Level Estimated
01:37PM 49.5710 12.6231 25° Northeast  Level Estimated
01:38PM 49.6506 12.6794 25° Northeast  Level Estimated
01:39PM 49.7302 12.7359 25° Northeast  Level Estimated
01:40PM 49.8097 12.7926 25° Northeast  Level Estimated
01:41PM 49.8892 12.8495 25° Northeast  Level Estimated
01:42PM 49.9687 12.9066 25° Northeast  Level Estimated
01:43PM 50.0482 12.9639 25° Northeast  Level Estimated
01:44PM 50.1276 13.0213 25° Northeast  Level Estimated
01:45PM 50.2070 13.0790 25° Northeast  Level Estimated
01:46PM 50.2864 13.1368 25° Northeast  Level Estimated
01:47PM 50.3657 13.1948 25° Northeast  Level Estimated
01:48PM 50.4451 13.2531 25° Northeast  Level Estimated
01:49PM 50.5244 13.3115 25° Northeast  Level Estimated
01:50PM 50.6036 13.3701 25° Northeast  Level Estimated
01:51PM 50.6828 13.4289 25° Northeast  Level Estimated
01:52PM 50.7621 13.4880 25° Northeast  Level Estimated
01:53PM 50.8412 13.5472 25° Northeast  Level Estimated
01:54PM 50.9204 13.6066 25° Northeast  Level Estimated
01:55PM 50.9995 13.6662 25° Northeast  Level Estimated
01:56PM 51.0785 13.7260 25° Northeast  Level Estimated
01:57PM 51.1576 13.7860 206° Southwest  Level Estimated
01:58PM 51.0785 13.7260 25° Northeast  Level Estimated
01:59PM 51.1576 13.7860 206° Southwest  Level Estimated
02:00PM 51.0785 13.7260 25° Northeast  Level Estimated
02:01PM 51.1576 13.7860 206° Southwest  Level Estimated
02:02PM 51.0785 13.7260 25° Northeast  Level Estimated
02:03PM 51.1576 13.7860 206° Southwest  Level Estimated
02:04PM 51.0785 13.7260 25° Northeast  Level Estimated
02:05PM 51.1576 13.7860 206° Southwest  Level Estimated
02:06PM 51.0785 13.7260 25° Northeast  Level Estimated
02:07PM 51.1576 13.7860 206° Southwest  Level Estimated
02:08PM 51.0785 13.7260 25° Northeast  Level Estimated
02:09PM 51.1576 13.7860 206° Southwest  Level Estimated
02:10PM 51.0785 13.7260 25° Northeast  Level Estimated
02:11PM 51.1576 13.7860 206° Southwest  Level Estimated
02:12PM 51.0785 13.7260 206° Southwest  Level Estimated